Aviation Digital Data Service (ADDS)

Output produced by METARs form (2035 UTC 25 October 2014)
found at http://www.aviationweather.gov/adds/metars/
 
KPHL 251727Z 2518/2624 25012G18KT P6SM FEW040 
     FM252300 27010KT P6SM SCT050 
     FM261300 29018G28KT P6SM SCT050